Time;durP1;ratioP1;P1;durP2;ratioP2;P2;SDS_P1;SDS_P2;PMS_P1;PMS_P2;Temp;Humidity;BMP_temperature;BMP_pressure;BME280_temperature;BME280_humidity;BME280_pressure;Samples;Min_cycle;Max_cycle;Signal;HPM_P1;HPM_P2
2023/12/06 01:26:27;;;;;;;;;;;22.00;43.10;;;;;;686686;19;50761;-74
2023/12/06 01:27:28;;;;;;;;;;;20.40;39.30;;;;;;3003482;19;5128;-74
2023/12/06 01:28:29;;;;;;;;;;;20.40;39.20;;;;;;3049284;19;5359;-73
2023/12/06 01:29:29;;;;;;;;;;;20.40;39.30;;;;;;3052087;19;5288;-72
2023/12/06 01:30:30;;;;;;;;;;;20.30;39.30;;;;;;3029908;19;5206;-72
2023/12/06 01:31:32;;;;;;;;;;;20.30;39.30;;;;;;3051291;19;5285;-82
2023/12/06 01:32:32;;;;;;;;;;;20.30;39.30;;;;;;3025183;19;5785;-71
2023/12/06 01:33:33;;;;;;;;;;;20.30;39.20;;;;;;3050716;19;4657;-75
2023/12/06 01:34:33;;;;;;;;;;;20.30;39.30;;;;;;3050829;19;5369;-76
2023/12/06 01:35:34;;;;;;;;;;;20.30;39.30;;;;;;3029873;19;5093;-67
2023/12/06 01:36:35;;;;;;;;;;;20.30;39.30;;;;;;3050743;19;4741;-68
2023/12/06 01:37:36;;;;;;;;;;;20.30;39.30;;;;;;3051942;19;5492;-68
2023/12/06 01:38:37;;;;;;;;;;;20.30;39.30;;;;;;3029038;19;4645;-68
2023/12/06 01:39:38;;;;;;;;;;;20.30;39.20;;;;;;3051119;19;4934;-68
2023/12/06 01:40:39;;;;;;;;;;;20.30;39.40;;;;;;3009141;19;5415;-67
2023/12/06 01:41:40;;;;;;;;;;;20.30;39.50;;;;;;3037171;19;5559;-73
2023/12/06 01:42:45;;;;;;;;;;;20.30;39.30;;;;;;3050661;19;4652;-68
2023/12/06 01:43:46;;;;;;;;;;;20.30;39.30;;;;;;3027119;19;5436;-69
2023/12/06 01:44:47;;;;;;;;;;;20.30;39.40;;;;;;3027982;19;5185;-82
2023/12/06 01:45:48;;;;;;;;;;;20.30;39.30;;;;;;3049607;19;4858;-68
2023/12/06 01:46:48;;;;;;;;;;;20.30;39.40;;;;;;3027119;19;19181;-70
2023/12/06 01:47:51;;;;;;;;;;;20.30;40.00;;;;;;3049346;19;4686;-69
2023/12/06 01:48:52;;;;;;;;;;;20.30;39.40;;;;;;3028211;19;5842;-69
2023/12/06 01:49:53;;;;;;;;;;;20.30;39.40;;;;;;3049554;19;5514;-69
2023/12/06 01:50:54;;;;;;;;;;;20.30;39.40;;;;;;3048019;19;5439;-71
2023/12/06 01:51:56;;;;;;;;;;;20.20;39.30;;;;;;3029409;19;4700;-69
2023/12/06 01:52:57;;;;;;;;;;;20.30;39.40;;;;;;3050627;19;4847;-68
2023/12/06 01:53:58;;;;;;;;;;;20.20;39.40;;;;;;3028869;19;5272;-69
2023/12/06 01:54:58;;;;;;;;;;;20.20;39.50;;;;;;3051260;19;5295;-69
2023/12/06 01:55:59;;;;;;;;;;;20.20;39.40;;;;;;3050155;19;5345;-69
2023/12/06 01:57:01;;;;;;;;;;;20.20;39.50;;;;;;3028385;19;4731;-69
2023/12/06 01:58:03;;;;;;;;;;;20.20;39.40;;;;;;3050784;19;5340;-70
2023/12/06 01:59:05;;;;;;;;;;;20.20;39.30;;;;;;3048149;19;5266;-69
2023/12/06 02:00:07;;;;;;;;;;;20.20;39.60;;;;;;3028644;19;15597;-68
2023/12/06 02:01:07;;;;;;;;;;;20.20;39.40;;;;;;3048547;19;4772;-70
2023/12/06 02:02:08;;;;;;;;;;;20.20;39.50;;;;;;3029252;19;5239;-69
2023/12/06 02:03:11;;;;;;;;;;;20.20;39.40;;;;;;3049992;19;5380;-69
2023/12/06 02:04:12;;;;;;;;;;;20.20;39.50;;;;;;3050341;19;5353;-69
2023/12/06 02:05:13;;;;;;;;;;;20.20;39.60;;;;;;3029180;19;5184;-70
2023/12/06 02:06:13;;;;;;;;;;;20.20;39.40;;;;;;3049398;19;5779;-70
2023/12/06 02:07:14;;;;;;;;;;;20.20;39.50;;;;;;3028388;19;5524;-69
2023/12/06 02:08:15;;;;;;;;;;;20.20;39.60;;;;;;3050848;19;803;-69
2023/12/06 02:09:15;;;;;;;;;;;20.20;39.50;;;;;;3048786;19;5239;-69
2023/12/06 02:10:16;;;;;;;;;;;20.20;39.50;;;;;;3027622;19;4584;-69
2023/12/06 02:11:17;;;;;;;;;;;20.20;39.60;;;;;;3049795;19;5606;-68
2023/12/06 02:12:17;;;;;;;;;;;20.10;39.40;;;;;;3050552;19;4817;-69
2023/12/06 02:13:18;;;;;;;;;;;20.20;39.60;;;;;;3028899;19;5284;-69
2023/12/06 02:14:19;;;;;;;;;;;20.20;39.60;;;;;;3049928;19;4639;-68
2023/12/06 02:15:21;;;;;;;;;;;20.10;39.50;;;;;;3026363;19;5403;-69
2023/12/06 02:16:22;;;;;;;;;;;20.10;39.60;;;;;;3049299;19;4879;-70
2023/12/06 02:17:23;;;;;;;;;;;20.10;39.50;;;;;;3050127;19;5707;-69
2023/12/06 02:18:25;;;;;;;;;;;20.10;39.50;;;;;;3028889;19;4823;-69
2023/12/06 02:19:26;;;;;;;;;;;20.10;39.60;;;;;;3050244;19;5366;-69
2023/12/06 02:20:27;;;;;;;;;;;20.10;39.50;;;;;;3049918;19;5389;-68
2023/12/06 02:21:27;;;;;;;;;;;20.10;39.60;;;;;;3028467;19;4720;-69
2023/12/06 02:22:28;;;;;;;;;;;20.10;39.60;;;;;;3050095;19;5413;-69
2023/12/06 02:23:31;;;;;;;;;;;20.10;39.60;;;;;;3028609;19;5337;-69
2023/12/06 02:24:32;;;;;;;;;;;20.10;39.60;;;;;;3050400;19;5364;-69
2023/12/06 02:25:33;;;;;;;;;;;20.10;39.50;;;;;;3049801;19;5403;-69
2023/12/06 02:26:33;;;;;;;;;;;20.10;39.80;;;;;;3027921;19;5275;-69
2023/12/06 02:27:34;;;;;;;;;;;20.10;39.70;;;;;;3049492;19;5171;-69
2023/12/06 02:28:35;;;;;;;;;;;20.10;39.80;;;;;;3027488;19;4786;-69
2023/12/06 02:29:37;;;;;;;;;;;20.10;39.60;;;;;;3051331;19;5304;-68
2023/12/06 02:30:37;;;;;;;;;;;20.10;39.60;;;;;;3050508;19;5211;-68
2023/12/06 02:31:38;;;;;;;;;;;20.10;39.70;;;;;;3028635;19;4835;-69
2023/12/06 02:32:39;;;;;;;;;;;20.10;39.70;;;;;;3050486;19;5285;-69
2023/12/06 02:33:39;;;;;;;;;;;20.10;39.60;;;;;;3049766;19;5345;-68
2023/12/06 02:34:40;;;;;;;;;;;20.10;39.70;;;;;;3030182;19;4940;-69
2023/12/06 02:35:47;;;;;;;;;;;20.10;39.70;;;;;;3050741;19;5286;-68
2023/12/06 02:36:50;;;;;;;;;;;20.10;39.70;;;;;;3028171;19;5424;-69
2023/12/06 02:37:51;;;;;;;;;;;20.00;39.70;;;;;;3049194;19;4744;-69
2023/12/06 02:38:52;;;;;;;;;;;20.00;39.70;;;;;;3048962;19;5620;-70
2023/12/06 02:39:53;;;;;;;;;;;20.10;39.80;;;;;;3027727;19;4982;-70
2023/12/06 02:40:54;;;;;;;;;;;20.00;39.60;;;;;;3050510;19;5387;-68
2023/12/06 02:41:55;;;;;;;;;;;20.00;39.70;;;;;;3028851;19;5478;-68
2023/12/06 02:42:58;;;;;;;;;;;20.00;39.70;;;;;;3051770;19;5379;-70
2023/12/06 02:43:58;;;;;;;;;;;20.00;39.70;;;;;;3051580;19;4826;-69
2023/12/06 02:45:00;;;;;;;;;;;20.00;39.90;;;;;;3029585;19;4859;-69
2023/12/06 02:46:01;;;;;;;;;;;20.00;39.80;;;;;;3050202;19;5366;-69
2023/12/06 02:47:04;;;;;;;;;;;20.00;39.90;;;;;;3049722;19;5379;-69
2023/12/06 02:48:06;;;;;;;;;;;20.00;39.70;;;;;;3028201;19;4720;-69
2023/12/06 02:49:07;;;;;;;;;;;20.00;39.80;;;;;;3030256;19;5203;-69
2023/12/06 02:50:09;;;;;;;;;;;20.00;39.80;;;;;;3027652;19;5367;-69
2023/12/06 02:51:11;;;;;;;;;;;20.00;39.80;;;;;;3047971;19;5302;-71
2023/12/06 02:52:12;;;;;;;;;;;20.00;39.70;;;;;;3051423;19;4845;-71
2023/12/06 02:53:14;;;;;;;;;;;20.00;40.00;;;;;;3030009;19;5169;-70
2023/12/06 02:54:15;;;;;;;;;;;20.00;39.80;;;;;;3051527;19;842;-71
2023/12/06 02:55:17;;;;;;;;;;;20.00;39.90;;;;;;3030402;19;5735;-71
2023/12/06 02:56:17;;;;;;;;;;;20.00;39.90;;;;;;3051805;19;5774;-71
2023/12/06 02:57:18;;;;;;;;;;;20.00;39.90;;;;;;3049908;19;5276;-72
2023/12/06 02:58:19;;;;;;;;;;;20.00;39.90;;;;;;3030358;19;5307;-71
2023/12/06 02:59:19;;;;;;;;;;;20.00;39.90;;;;;;3050523;19;5390;-71
2023/12/06 03:00:20;;;;;;;;;;;20.00;39.90;;;;;;3052039;19;5619;-69
2023/12/06 03:01:21;;;;;;;;;;;19.90;39.70;;;;;;3028727;19;5280;-72
2023/12/06 03:02:22;;;;;;;;;;;19.90;40.00;;;;;;3051531;19;5624;-72
2023/12/06 03:03:22;;;;;;;;;;;19.90;39.80;;;;;;3029282;19;4953;-73
2023/12/06 03:04:23;;;;;;;;;;;19.90;39.80;;;;;;3052147;19;5419;-71
2023/12/06 03:05:24;;;;;;;;;;;19.90;39.90;;;;;;3051160;19;5404;-73
2023/12/06 03:06:25;;;;;;;;;;;19.90;40.00;;;;;;3030273;19;5693;-73
2023/12/06 03:07:25;;;;;;;;;;;19.90;39.90;;;;;;3050857;19;5399;-72
2023/12/06 03:08:26;;;;;;;;;;;19.90;39.90;;;;;;3048764;19;5215;-72
2023/12/06 03:09:27;;;;;;;;;;;19.90;39.90;;;;;;3023905;19;4779;-71
2023/12/06 03:10:27;;;;;;;;;;;19.90;40.00;;;;;;3047029;19;5344;-83
2023/12/06 03:11:28;;;;;;;;;;;19.90;39.90;;;;;;3027659;19;4857;-81
2023/12/06 03:12:29;;;;;;;;;;;19.90;39.90;;;;;;3050090;19;5392;-83
2023/12/06 03:13:29;;;;;;;;;;;19.90;40.00;;;;;;3050582;19;5360;-83
2023/12/06 03:14:30;;;;;;;;;;;19.90;39.90;;;;;;3030176;19;5357;-84
2023/12/06 03:15:31;;;;;;;;;;;19.90;40.10;;;;;;3050913;19;4564;-84
2023/12/06 03:16:32;;;;;;;;;;;19.90;40.10;;;;;;3029345;19;5404;-82
2023/12/06 03:17:33;;;;;;;;;;;19.90;40.00;;;;;;3051470;19;4703;-82
2023/12/06 03:18:35;;;;;;;;;;;19.90;40.10;;;;;;3051010;19;5408;-82
2023/12/06 03:19:36;;;;;;;;;;;19.90;40.00;;;;;;3028949;19;5329;-83
2023/12/06 03:20:37;;;;;;;;;;;19.90;40.10;;;;;;3051683;19;5463;-83
2023/12/06 03:21:38;;;;;;;;;;;19.90;40.00;;;;;;3052859;19;5372;-82
2023/12/06 03:22:39;;;;;;;;;;;19.90;40.10;;;;;;3032049;19;5074;-82
2023/12/06 03:23:39;;;;;;;;;;;19.90;40.00;;;;;;3052027;19;5581;-83
2023/12/06 03:24:40;;;;;;;;;;;19.90;40.10;;;;;;3029129;19;5411;-83
2023/12/06 03:25:42;;;;;;;;;;;19.90;40.10;;;;;;3051742;19;4741;-83
2023/12/06 03:26:43;;;;;;;;;;;19.90;40.80;;;;;;3055277;19;5320;-83
2023/12/06 03:27:45;;;;;;;;;;;19.90;40.20;;;;;;3031592;19;4738;-84
2023/12/06 03:28:46;;;;;;;;;;;19.80;40.10;;;;;;3052734;19;5406;-84
2023/12/06 03:29:46;;;;;;;;;;;19.90;40.20;;;;;;3054740;19;4656;-83
2023/12/06 03:30:48;;;;;;;;;;;19.80;40.10;;;;;;3032658;19;5188;-82
2023/12/06 03:31:49;;;;;;;;;;;19.80;40.10;;;;;;3053150;19;5246;-82
2023/12/06 03:32:51;;;;;;;;;;;19.80;40.20;;;;;;3033804;19;4748;-83
2023/12/06 03:33:55;;;;;;;;;;;19.80;40.20;;;;;;3056031;19;4709;-83
2023/12/06 03:34:56;;;;;;;;;;;19.80;40.20;;;;;;3057860;19;5292;-83
2023/12/06 03:35:58;;;;;;;;;;;19.80;39.90;;;;;;3050326;19;5377;-82
2023/12/06 03:37:00;;;;;;;;;;;19.80;39.70;;;;;;3071913;19;5204;-82
2023/12/06 03:38:01;;;;;;;;;;;19.80;39.60;;;;;;3048423;19;5678;-81
2023/12/06 03:39:02;;;;;;;;;;;19.80;39.60;;;;;;3068398;19;5485;-83
2023/12/06 03:40:05;;;;;;;;;;;19.80;39.60;;;;;;3069306;19;5239;-82
2023/12/06 03:41:05;;;;;;;;;;;19.90;39.80;;;;;;3047171;19;4672;-82
2023/12/06 03:42:06;;;;;;;;;;;19.90;39.90;;;;;;3066793;19;21131;-77
2023/12/06 03:43:06;;;;;;;;;;;20.00;39.90;;;;;;3070602;19;5486;-79
2023/12/06 03:44:07;;;;;;;;;;;20.00;39.80;;;;;;3045829;19;4788;-78
2023/12/06 03:45:09;;;;;;;;;;;20.00;39.60;;;;;;3069736;19;897;-83
2023/12/06 03:46:10;;;;;;;;;;;20.10;39.70;;;;;;3045321;19;5026;-81
2023/12/06 03:47:10;;;;;;;;;;;20.10;39.60;;;;;;3068109;19;4869;-80
2023/12/06 03:48:11;;;;;;;;;;;20.10;39.50;;;;;;3067823;19;4704;-80
2023/12/06 03:49:12;;;;;;;;;;;20.10;39.60;;;;;;3044727;19;4787;-81
2023/12/06 03:50:12;;;;;;;;;;;20.10;39.60;;;;;;3069673;19;4911;-80
2023/12/06 03:51:13;;;;;;;;;;;20.10;39.60;;;;;;3048154;19;5431;-83
2023/12/06 03:52:13;;;;;;;;;;;20.20;39.50;;;;;;3066950;19;5449;-81
2023/12/06 03:53:14;;;;;;;;;;;20.20;39.60;;;;;;3065966;19;929;-82
2023/12/06 03:54:15;;;;;;;;;;;20.20;39.50;;;;;;3042460;19;5231;-81
2023/12/06 03:55:15;;;;;;;;;;;20.20;39.60;;;;;;3061552;19;5456;-82
2023/12/06 03:56:16;;;;;;;;;;;20.20;39.60;;;;;;3054962;19;5388;-80
2023/12/06 03:57:16;;;;;;;;;;;20.20;39.30;;;;;;3035136;19;4841;-82
2023/12/06 03:58:17;;;;;;;;;;;20.20;39.30;;;;;;3050971;19;5482;-84
2023/12/06 03:59:18;;;;;;;;;;;20.30;39.30;;;;;;3030415;19;5390;-82
2023/12/06 04:00:18;;;;;;;;;;;20.30;39.20;;;;;;3053992;19;4795;-82
2023/12/06 04:01:19;;;;;;;;;;;20.30;39.10;;;;;;3053847;19;4740;-84
2023/12/06 04:02:20;;;;;;;;;;;20.40;39.10;;;;;;3033555;19;4501;-81
2023/12/06 04:03:20;;;;;;;;;;;20.40;39.10;;;;;;3057456;19;5388;-83
2023/12/06 04:04:21;;;;;;;;;;;20.40;38.90;;;;;;3058642;19;4676;-83
2023/12/06 04:05:22;;;;;;;;;;;20.40;38.90;;;;;;3032192;19;6560;-83
2023/12/06 04:06:22;;;;;;;;;;;20.40;38.90;;;;;;3053066;19;5714;-82
2023/12/06 04:07:23;;;;;;;;;;;20.50;39.00;;;;;;3032600;19;5391;-82
2023/12/06 04:08:24;;;;;;;;;;;20.50;39.00;;;;;;3052055;19;5343;-83
2023/12/06 04:09:24;;;;;;;;;;;20.40;39.10;;;;;;3054511;19;5439;-83
2023/12/06 04:10:25;;;;;;;;;;;20.40;38.90;;;;;;3030881;19;5194;-84
2023/12/06 04:11:25;;;;;;;;;;;20.50;38.90;;;;;;3053225;19;5486;-83
2023/12/06 04:12:26;;;;;;;;;;;20.50;38.90;;;;;;3053651;19;5421;-84
2023/12/06 04:13:28;;;;;;;;;;;20.50;39.00;;;;;;3031663;19;4634;-83
2023/12/06 04:14:28;;;;;;;;;;;20.50;39.00;;;;;;3053838;19;5393;-83
2023/12/06 04:15:29;;;;;;;;;;;20.40;38.90;;;;;;3031615;19;5389;-84
2023/12/06 04:16:31;;;;;;;;;;;20.40;39.00;;;;;;3053021;19;5826;-82
2023/12/06 04:17:31;;;;;;;;;;;20.40;38.90;;;;;;3053285;19;5283;-82
2023/12/06 04:18:33;;;;;;;;;;;20.40;39.00;;;;;;3029393;19;6071;-82
2023/12/06 04:19:34;;;;;;;;;;;20.40;38.90;;;;;;3052233;19;5765;-83
2023/12/06 04:20:34;;;;;;;;;;;20.40;38.90;;;;;;3030890;19;5636;-73
2023/12/06 04:21:36;;;;;;;;;;;20.40;38.90;;;;;;3050753;19;5132;-72
2023/12/06 04:22:37;;;;;;;;;;;20.40;39.00;;;;;;3051826;19;5225;-73
2023/12/06 04:23:38;;;;;;;;;;;20.40;38.90;;;;;;3030316;19;5464;-74
2023/12/06 04:24:39;;;;;;;;;;;20.40;39.00;;;;;;3052475;19;4706;-74
2023/12/06 04:25:40;;;;;;;;;;;20.40;38.90;;;;;;3051735;19;5209;-73
2023/12/06 04:26:41;;;;;;;;;;;20.40;38.90;;;;;;3029909;19;4874;-72
2023/12/06 04:27:42;;;;;;;;;;;20.50;39.10;;;;;;3052110;19;5403;-73
2023/12/06 04:28:42;;;;;;;;;;;20.50;38.90;;;;;;3031274;19;5261;-72
2023/12/06 04:29:43;;;;;;;;;;;20.40;38.90;;;;;;3052215;19;6527;-73
2023/12/06 04:30:43;;;;;;;;;;;20.50;39.00;;;;;;3052936;19;5525;-70
2023/12/06 04:31:44;;;;;;;;;;;20.50;38.70;;;;;;3029812;19;5109;-71
2023/12/06 04:32:45;;;;;;;;;;;20.50;38.70;;;;;;3052748;19;5397;-72
2023/12/06 04:33:46;;;;;;;;;;;20.50;38.80;;;;;;3051472;19;5374;-70
2023/12/06 04:34:53;;;;;;;;;;;20.50;38.80;;;;;;3029608;19;4697;-71
2023/12/06 04:35:54;;;;;;;;;;;20.50;39.00;;;;;;3051634;19;5385;-71
2023/12/06 04:36:54;;;;;;;;;;;20.50;38.90;;;;;;3030482;19;5418;-71
2023/12/06 04:37:55;;;;;;;;;;;20.50;38.90;;;;;;3051905;19;4862;-71
2023/12/06 04:38:56;;;;;;;;;;;20.50;38.90;;;;;;3051678;19;5286;-71
2023/12/06 04:39:57;;;;;;;;;;;20.60;38.80;;;;;;3029304;19;5261;-71
2023/12/06 04:40:58;;;;;;;;;;;20.60;38.80;;;;;;3051161;19;5410;-71
2023/12/06 04:41:58;;;;;;;;;;;20.70;38.80;;;;;;3028570;19;4716;-69
2023/12/06 04:42:59;;;;;;;;;;;20.70;38.60;;;;;;3051490;19;4787;-71
2023/12/06 04:44:02;;;;;;;;;;;20.80;38.60;;;;;;3051407;19;5437;-70
2023/12/06 04:45:03;;;;;;;;;;;20.90;38.60;;;;;;3030485;19;5152;-72
2023/12/06 04:46:03;;;;;;;;;;;20.90;38.50;;;;;;3050711;19;5334;-71
2023/12/06 04:47:04;;;;;;;;;;;21.00;38.40;;;;;;3050282;19;5279;-71
2023/12/06 04:48:05;;;;;;;;;;;21.10;38.30;;;;;;3028826;19;4769;-71
2023/12/06 04:49:06;;;;;;;;;;;21.20;38.30;;;;;;3050347;19;5415;-72
2023/12/06 04:50:08;;;;;;;;;;;21.20;38.20;;;;;;3029791;19;5150;-72
2023/12/06 04:51:09;;;;;;;;;;;21.20;38.10;;;;;;3051245;19;5412;-72
2023/12/06 04:52:10;;;;;;;;;;;21.20;38.20;;;;;;3051914;19;940;-71
2023/12/06 04:53:10;;;;;;;;;;;21.30;38.00;;;;;;3028341;19;4748;-72
2023/12/06 04:54:11;;;;;;;;;;;21.30;38.10;;;;;;3050529;19;4679;-70
2023/12/06 04:55:12;;;;;;;;;;;21.30;38.10;;;;;;3029901;19;5319;-72
2023/12/06 04:56:13;;;;;;;;;;;21.30;37.90;;;;;;3051210;19;5368;-71
2023/12/06 04:57:14;;;;;;;;;;;21.30;38.00;;;;;;3050495;19;5389;-71
2023/12/06 04:58:16;;;;;;;;;;;21.30;38.00;;;;;;3030694;19;6826;-71
2023/12/06 04:59:17;;;;;;;;;;;21.30;38.00;;;;;;3049832;19;5661;-72
2023/12/06 05:00:18;;;;;;;;;;;21.30;38.00;;;;;;3050939;19;4999;-70
2023/12/06 05:01:18;;;;;;;;;;;21.20;38.20;;;;;;3029129;19;5398;-72
2023/12/06 05:02:19;;;;;;;;;;;21.20;38.00;;;;;;3050178;19;4689;-71
2023/12/06 05:03:19;;;;;;;;;;;21.20;38.00;;;;;;3027530;19;5423;-72
2023/12/06 05:04:22;;;;;;;;;;;21.20;38.50;;;;;;3050272;19;5322;-71
2023/12/06 05:05:22;;;;;;;;;;;21.10;38.20;;;;;;3050602;19;5495;-72
2023/12/06 05:06:23;;;;;;;;;;;21.10;37.90;;;;;;3029348;19;5044;-72
2023/12/06 05:07:25;;;;;;;;;;;21.00;37.90;;;;;;3050944;19;5380;-70
2023/12/06 05:08:26;;;;;;;;;;;21.10;38.00;;;;;;3050969;19;5453;-70
2023/12/06 05:09:28;;;;;;;;;;;21.00;37.90;;;;;;3029632;19;5538;-72
2023/12/06 05:10:28;;;;;;;;;;;21.00;38.00;;;;;;3050617;19;5464;-71
2023/12/06 05:11:29;;;;;;;;;;;21.10;38.10;;;;;;3030133;19;4792;-71
2023/12/06 05:12:29;;;;;;;;;;;21.10;38.20;;;;;;3050648;19;5419;-70
2023/12/06 05:13:30;;;;;;;;;;;21.20;38.10;;;;;;3050490;19;5999;-72
2023/12/06 05:14:31;;;;;;;;;;;21.30;38.10;;;;;;3029335;19;4775;-71
2023/12/06 05:15:32;;;;;;;;;;;21.30;38.00;;;;;;3050667;19;5431;-71
2023/12/06 05:16:32;;;;;;;;;;;21.40;38.00;;;;;;3029425;19;5267;-71
2023/12/06 05:17:33;;;;;;;;;;;21.40;37.90;;;;;;3050522;19;5250;-70
2023/12/06 05:18:34;;;;;;;;;;;21.40;37.80;;;;;;3051010;19;5416;-71
2023/12/06 05:19:35;;;;;;;;;;;21.40;37.80;;;;;;3029296;19;5399;-71
2023/12/06 05:20:37;;;;;;;;;;;21.40;37.80;;;;;;3052701;19;5329;-71
2023/12/06 05:21:38;;;;;;;;;;;21.40;37.50;;;;;;3050828;19;4685;-72
2023/12/06 05:22:38;;;;;;;;;;;21.40;37.70;;;;;;3030028;19;5196;-71
2023/12/06 05:23:39;;;;;;;;;;;21.30;37.50;;;;;;3050674;19;5213;-71
2023/12/06 05:24:40;;;;;;;;;;;21.30;37.60;;;;;;3029112;19;5835;-71
2023/12/06 05:25:42;;;;;;;;;;;21.30;37.50;;;;;;3050633;19;5319;-71
2023/12/06 05:26:42;;;;;;;;;;;21.30;37.60;;;;;;3049903;19;5273;-71
2023/12/06 05:27:43;;;;;;;;;;;21.30;37.60;;;;;;3029798;19;5322;-71
2023/12/06 05:28:45;;;;;;;;;;;21.30;37.60;;;;;;3051944;19;5873;-72
2023/12/06 05:29:46;;;;;;;;;;;21.30;37.60;;;;;;3050702;19;5274;-71
2023/12/06 05:30:46;;;;;;;;;;;21.30;37.60;;;;;;3029407;19;4951;-72
2023/12/06 05:31:50;;;;;;;;;;;21.30;37.80;;;;;;3053534;19;5392;-71
2023/12/06 05:32:51;;;;;;;;;;;21.40;37.80;;;;;;3031648;19;5413;-71
2023/12/06 05:33:53;;;;;;;;;;;21.40;37.70;;;;;;3052209;19;5398;-71
2023/12/06 05:34:55;;;;;;;;;;;21.40;37.60;;;;;;3051717;19;5782;-71
2023/12/06 05:35:58;;;;;;;;;;;21.40;37.60;;;;;;3029154;19;5515;-70
2023/12/06 05:36:58;;;;;;;;;;;21.50;37.50;;;;;;3052218;19;4621;-71
2023/12/06 05:37:59;;;;;;;;;;;21.50;37.40;;;;;;3032024;19;4298;-71
2023/12/06 05:39:00;;;;;;;;;;;21.50;37.40;;;;;;3054151;19;5515;-71
2023/12/06 05:40:00;;;;;;;;;;;21.50;37.40;;;;;;3053456;19;4689;-71
2023/12/06 05:41:01;;;;;;;;;;;21.50;37.30;;;;;;3031617;19;4740;-81
2023/12/06 05:42:02;;;;;;;;;;;21.50;37.30;;;;;;3052696;19;4921;-81
2023/12/06 05:43:03;;;;;;;;;;;21.50;37.30;;;;;;3054164;19;4642;-81
2023/12/06 05:44:07;;;;;;;;;;;21.50;37.30;;;;;;3031740;19;5220;-82
2023/12/06 05:45:08;;;;;;;;;;;21.50;37.40;;;;;;3052791;19;5281;-81
2023/12/06 05:46:09;;;;;;;;;;;21.50;37.30;;;;;;3031964;19;4514;-82
2023/12/06 05:47:10;;;;;;;;;;;21.50;37.30;;;;;;3053520;19;5427;-82
2023/12/06 05:48:11;;;;;;;;;;;21.50;37.30;;;;;;3054134;19;5557;-81
2023/12/06 05:49:11;;;;;;;;;;;21.50;37.40;;;;;;3033436;19;5291;-82
2023/12/06 05:50:13;;;;;;;;;;;21.50;37.30;;;;;;3053531;19;5343;-81
2023/12/06 05:51:13;;;;;;;;;;;21.50;37.30;;;;;;3032874;19;4228;-80
2023/12/06 05:52:14;;;;;;;;;;;21.50;37.30;;;;;;3054787;19;20994;-81
2023/12/06 05:53:16;;;;;;;;;;;21.50;37.40;;;;;;3055353;19;7719;-81
2023/12/06 05:54:17;;;;;;;;;;;21.40;37.30;;;;;;3033192;19;4537;-81
2023/12/06 05:55:18;;;;;;;;;;;21.50;37.40;;;;;;3052961;19;5287;-81
2023/12/06 05:56:18;;;;;;;;;;;21.40;37.20;;;;;;3054581;19;6433;-79
2023/12/06 05:57:20;;;;;;;;;;;21.40;37.30;;;;;;3032222;19;5203;-78
2023/12/06 05:58:21;;;;;;;;;;;21.40;37.30;;;;;;3054609;19;5274;-82
2023/12/06 05:59:22;;;;;;;;;;;21.40;37.40;;;;;;3034527;19;4767;-81
2023/12/06 06:00:25;;;;;;;;;;;21.30;37.30;;;;;;3057118;19;5429;-81
2023/12/06 06:01:27;;;;;;;;;;;21.30;37.30;;;;;;3056699;19;5204;-81
2023/12/06 06:02:30;;;;;;;;;;;21.20;37.30;;;;;;3034859;19;4741;-81
2023/12/06 06:03:30;;;;;;;;;;;21.30;37.40;;;;;;3055850;19;5313;-80
2023/12/06 06:04:31;;;;;;;;;;;21.20;37.40;;;;;;3036363;19;5317;-80
2023/12/06 06:05:33;;;;;;;;;;;21.20;37.30;;;;;;3053601;19;5241;-82
2023/12/06 06:06:37;;;;;;;;;;;21.20;37.40;;;;;;3055182;19;5342;-81
2023/12/06 06:07:37;;;;;;;;;;;21.30;37.40;;;;;;3034283;19;5300;-81
2023/12/06 06:08:38;;;;;;;;;;;21.30;37.60;;;;;;3055320;19;5361;-81
2023/12/06 06:09:38;;;;;;;;;;;21.30;37.60;;;;;;3058418;19;6019;-81
2023/12/06 06:10:39;;;;;;;;;;;21.40;37.40;;;;;;3037951;19;5263;-79
2023/12/06 06:11:40;;;;;;;;;;;21.50;37.50;;;;;;3064674;19;4811;-82
2023/12/06 06:12:41;;;;;;;;;;;21.50;37.40;;;;;;3050169;19;5459;-82
2023/12/06 06:13:41;;;;;;;;;;;21.50;37.20;;;;;;3073103;19;4875;-80
2023/12/06 06:14:42;;;;;;;;;;;21.60;37.10;;;;;;3071669;19;4891;-81
2023/12/06 06:15:43;;;;;;;;;;;21.60;37.20;;;;;;3050364;19;5260;-82
2023/12/06 06:16:43;;;;;;;;;;;21.60;37.20;;;;;;3070785;19;5396;-80
2023/12/06 06:17:44;;;;;;;;;;;21.60;37.20;;;;;;3072252;19;6470;-79
2023/12/06 06:18:44;;;;;;;;;;;21.60;37.20;;;;;;3048961;19;4803;-80
2023/12/06 06:19:45;;;;;;;;;;;21.50;37.10;;;;;;3072635;19;6452;-81
2023/12/06 06:20:46;;;;;;;;;;;21.50;37.20;;;;;;3051508;19;5399;-79
2023/12/06 06:21:46;;;;;;;;;;;21.50;37.30;;;;;;3071004;19;5380;-82
2023/12/06 06:22:47;;;;;;;;;;;21.50;37.20;;;;;;3069813;19;4870;-80
2023/12/06 06:23:48;;;;;;;;;;;21.50;37.30;;;;;;3049172;19;4881;-80
2023/12/06 06:24:48;;;;;;;;;;;21.40;37.20;;;;;;3069581;19;4818;-80
2023/12/06 06:25:49;;;;;;;;;;;21.40;37.00;;;;;;3059585;19;4793;-77
2023/12/06 06:26:49;;;;;;;;;;;21.30;37.00;;;;;;3065279;19;5285;-80
2023/12/06 06:27:50;;;;;;;;;;;21.30;37.10;;;;;;3068937;19;5428;-80
2023/12/06 06:28:51;;;;;;;;;;;21.30;37.10;;;;;;3048271;19;5401;-80
2023/12/06 06:29:51;;;;;;;;;;;21.30;37.20;;;;;;3066203;19;5442;-78
2023/12/06 06:30:52;;;;;;;;;;;21.30;37.10;;;;;;3070035;19;5209;-80
2023/12/06 06:31:53;;;;;;;;;;;21.30;37.30;;;;;;3043727;19;4984;-77
2023/12/06 06:32:53;;;;;;;;;;;21.30;37.30;;;;;;3051642;19;5456;-79
2023/12/06 06:33:54;;;;;;;;;;;21.40;37.30;;;;;;3030300;19;5199;-78
2023/12/06 06:34:54;;;;;;;;;;;21.50;37.20;;;;;;3051938;19;5394;-79
2023/12/06 06:35:55;;;;;;;;;;;21.50;37.10;;;;;;3054170;19;5323;-82
2023/12/06 06:36:56;;;;;;;;;;;21.60;37.10;;;;;;3033849;19;4778;-77
2023/12/06 06:37:57;;;;;;;;;;;21.60;37.10;;;;;;3050967;19;4666;-79
2023/12/06 06:38:59;;;;;;;;;;;21.60;37.10;;;;;;3052669;19;5535;-79
2023/12/06 06:39:59;;;;;;;;;;;21.60;37.20;;;;;;3030177;19;4718;-81
2023/12/06 06:41:00;;;;;;;;;;;21.60;37.00;;;;;;3049066;19;4802;-65
2023/12/06 06:42:00;;;;;;;;;;;21.60;37.00;;;;;;3030288;19;5397;-70
2023/12/06 06:43:01;;;;;;;;;;;21.60;37.10;;;;;;3049561;19;5382;-64
2023/12/06 06:44:02;;;;;;;;;;;21.50;37.00;;;;;;3047675;19;4813;-65
2023/12/06 06:45:03;;;;;;;;;;;21.50;37.00;;;;;;3027443;19;5369;-65
2023/12/06 06:46:04;;;;;;;;;;;21.50;37.10;;;;;;3047159;19;5394;-67
2023/12/06 06:47:04;;;;;;;;;;;21.50;37.10;;;;;;3048776;19;4794;-68
2023/12/06 06:48:05;;;;;;;;;;;21.50;37.10;;;;;;3029705;19;4825;-67
2023/12/06 06:49:06;;;;;;;;;;;21.40;37.10;;;;;;3052667;19;5224;-67
2023/12/06 06:50:08;;;;;;;;;;;21.40;37.10;;;;;;3029456;19;4110;-68
2023/12/06 06:51:09;;;;;;;;;;;21.40;37.20;;;;;;3050491;19;5380;-73
2023/12/06 06:52:12;;;;;;;;;;;21.40;37.20;;;;;;3048345;19;5360;-73
2023/12/06 06:53:13;;;;;;;;;;;21.40;37.30;;;;;;3030908;19;4695;-72
2023/12/06 06:54:13;;;;;;;;;;;21.30;37.10;;;;;;3052195;19;7921;-73
2023/12/06 06:55:14;;;;;;;;;;;21.30;36.90;;;;;;3029085;19;4675;-73
2023/12/06 06:56:15;;;;;;;;;;;21.30;37.00;;;;;;3050954;19;4654;-73
2023/12/06 06:57:15;;;;;;;;;;;21.30;37.00;;;;;;3051868;19;4674;-73
2023/12/06 06:58:16;;;;;;;;;;;21.30;37.10;;;;;;3026871;19;5181;-73
2023/12/06 06:59:19;;;;;;;;;;;21.30;37.10;;;;;;3050639;19;5128;-73
2023/12/06 07:00:21;;;;;;;;;;;21.30;37.10;;;;;;3055341;19;5555;-73
2023/12/06 07:01:22;;;;;;;;;;;21.40;37.20;;;;;;3032286;19;4932;-73
2023/12/06 07:02:22;;;;;;;;;;;21.40;37.00;;;;;;3054372;19;5399;-74
2023/12/06 07:03:23;;;;;;;;;;;21.50;37.10;;;;;;3030944;19;5028;-72
2023/12/06 07:04:23;;;;;;;;;;;21.50;36.90;;;;;;3050803;19;5315;-74
2023/12/06 07:05:24;;;;;;;;;;;21.50;36.80;;;;;;3051623;19;5382;-72
2023/12/06 07:06:25;;;;;;;;;;;21.60;36.70;;;;;;3029473;19;5243;-73
2023/12/06 07:07:25;;;;;;;;;;;21.50;36.70;;;;;;3050471;19;5395;-72
2023/12/06 07:08:27;;;;;;;;;;;21.50;36.60;;;;;;3051477;19;5464;-73
2023/12/06 07:09:29;;;;;;;;;;;21.60;36.60;;;;;;3025781;19;5366;-74
2023/12/06 07:10:30;;;;;;;;;;;21.60;36.60;;;;;;3050004;19;6119;-72
2023/12/06 07:11:33;;;;;;;;;;;21.60;36.70;;;;;;3029257;19;5395;-73
2023/12/06 07:12:33;;;;;;;;;;;21.60;36.60;;;;;;3051113;19;5251;-72
2023/12/06 07:13:34;;;;;;;;;;;21.60;36.70;;;;;;3050888;19;5265;-74
2023/12/06 07:14:35;;;;;;;;;;;21.60;36.60;;;;;;3028170;19;4741;-73
2023/12/06 07:15:37;;;;;;;;;;;21.70;36.60;;;;;;3050455;19;4861;-74
2023/12/06 07:16:39;;;;;;;;;;;21.70;36.50;;;;;;3029723;19;5399;-73
2023/12/06 07:17:39;;;;;;;;;;;21.70;36.30;;;;;;3049071;19;5355;-73
2023/12/06 07:18:40;;;;;;;;;;;21.80;36.50;;;;;;3050317;19;5262;-73
2023/12/06 07:19:43;;;;;;;;;;;21.80;36.40;;;;;;3028079;19;5382;-74
2023/12/06 07:20:44;;;;;;;;;;;21.80;36.40;;;;;;3051454;19;5327;-73
2023/12/06 07:21:45;;;;;;;;;;;21.80;36.40;;;;;;3050687;19;5020;-73
2023/12/06 07:22:45;;;;;;;;;;;21.80;36.40;;;;;;3029745;19;5068;-72
2023/12/06 07:23:46;;;;;;;;;;;21.80;36.20;;;;;;3048955;19;5371;-73
2023/12/06 07:24:48;;;;;;;;;;;21.80;36.40;;;;;;3028636;19;5332;-73
2023/12/06 07:25:50;;;;;;;;;;;21.80;36.50;;;;;;3050214;19;5992;-73
2023/12/06 07:26:51;;;;;;;;;;;21.80;36.40;;;;;;3050977;19;5460;-72